sensor_id;sensor_type;location;lat;lon;timestamp;pressure;altitude;pressure_sealevel;temperature;humidity
60307;BME280;46155;52.364;6.580;2023-06-22T03:01:29;101637.84;;;17.75;100.00
60307;BME280;46155;52.364;6.580;2023-06-22T03:03:56;101634.34;;;17.76;100.00
60307;BME280;46155;52.364;6.580;2023-06-22T03:06:22;101642.31;;;17.76;100.00
60307;BME280;46155;52.364;6.580;2023-06-22T03:08:51;101650.16;;;17.73;100.00
60307;BME280;46155;52.364;6.580;2023-06-22T03:11:17;101637.31;;;17.63;100.00
60307;BME280;46155;52.364;6.580;2023-06-22T03:13:42;101641.28;;;17.53;100.00
60307;BME280;46155;52.364;6.580;2023-06-22T03:16:08;101642.91;;;17.49;100.00
60307;BME280;46155;52.364;6.580;2023-06-22T03:18:33;101641.28;;;17.53;100.00
60307;BME280;46155;52.364;6.580;2023-06-22T03:20:59;101630.47;;;17.48;100.00
60307;BME280;46155;52.364;6.580;2023-06-22T03:23:25;101631.84;;;17.40;100.00
60307;BME280;46155;52.364;6.580;2023-06-22T03:25:50;101638.84;;;17.38;100.00
60307;BME280;46155;52.364;6.580;2023-06-22T03:28:15;101642.88;;;17.30;100.00
60307;BME280;46155;52.364;6.580;2023-06-22T03:30:41;101637.25;;;17.24;100.00
60307;BME280;46155;52.364;6.580;2023-06-22T03:33:06;101639.38;;;17.11;100.00
60307;BME280;46155;52.364;6.580;2023-06-22T03:35:31;101636.41;;;17.05;100.00
60307;BME280;46155;52.364;6.580;2023-06-22T03:37:57;101631.28;;;17.08;100.00
60307;BME280;46155;52.364;6.580;2023-06-22T03:40:22;101632.84;;;17.04;100.00
60307;BME280;46155;52.364;6.580;2023-06-22T03:42:47;101629.06;;;16.99;100.00
60307;BME280;46155;52.364;6.580;2023-06-22T03:45:13;101632.91;;;17.06;100.00
60307;BME280;46155;52.364;6.580;2023-06-22T03:47:38;101635.44;;;17.03;100.00
60307;BME280;46155;52.364;6.580;2023-06-22T03:50:05;101630.69;;;16.96;100.00
60307;BME280;46155;52.364;6.580;2023-06-22T03:52:31;101631.72;;;16.99;100.00
60307;BME280;46155;52.364;6.580;2023-06-22T03:54:56;101627.09;;;16.95;100.00
60307;BME280;46155;52.364;6.580;2023-06-22T03:57:21;101632.50;;;16.97;100.00
60307;BME280;46155;52.364;6.580;2023-06-22T03:59:47;101620.22;;;16.99;100.00
60307;BME280;46155;52.364;6.580;2023-06-22T04:02:12;101606.13;;;17.00;100.00
60307;BME280;46155;52.364;6.580;2023-06-22T04:04:37;101597.16;;;16.98;100.00
60307;BME280;46155;52.364;6.580;2023-06-22T04:07:04;101611.34;;;16.98;100.00
60307;BME280;46155;52.364;6.580;2023-06-22T04:09:30;101604.28;;;16.99;100.00
60307;BME280;46155;52.364;6.580;2023-06-22T04:11:55;101600.44;;;16.92;100.00
60307;BME280;46155;52.364;6.580;2023-06-22T04:14:20;101598.84;;;16.96;100.00
60307;BME280;46155;52.364;6.580;2023-06-22T04:16:45;101619.38;;;17.00;100.00
60307;BME280;46155;52.364;6.580;2023-06-22T04:19:11;101625.50;;;16.99;100.00
60307;BME280;46155;52.364;6.580;2023-06-22T04:21:41;101616.41;;;16.94;100.00
60307;BME280;46155;52.364;6.580;2023-06-22T04:24:06;101623.94;;;17.02;100.00
60307;BME280;46155;52.364;6.580;2023-06-22T04:26:32;101608.22;;;17.07;100.00
60307;BME280;46155;52.364;6.580;2023-06-22T04:29:02;101621.56;;;17.09;100.00
60307;BME280;46155;52.364;6.580;2023-06-22T04:31:30;101618.97;;;17.10;100.00
60307;BME280;46155;52.364;6.580;2023-06-22T04:33:57;101619.78;;;17.09;100.00
60307;BME280;46155;52.364;6.580;2023-06-22T04:36:23;101620.94;;;17.14;100.00
60307;BME280;46155;52.364;6.580;2023-06-22T04:38:48;101616.59;;;17.16;100.00
60307;BME280;46155;52.364;6.580;2023-06-22T04:41:17;101617.72;;;17.21;100.00
60307;BME280;46155;52.364;6.580;2023-06-22T04:43:49;101618.97;;;17.10;100.00
60307;BME280;46155;52.364;6.580;2023-06-22T04:46:19;101610.88;;;17.07;100.00
60307;BME280;46155;52.364;6.580;2023-06-22T04:48:44;101613.38;;;17.04;100.00
60307;BME280;46155;52.364;6.580;2023-06-22T04:51:09;101612.69;;;17.08;100.00
60307;BME280;46155;52.364;6.580;2023-06-22T04:53:35;101601.63;;;16.99;100.00
60307;BME280;46155;52.364;6.580;2023-06-22T04:56:01;101610.81;;;17.06;100.00
60307;BME280;46155;52.364;6.580;2023-06-22T04:58:29;101597.28;;;17.01;100.00
60307;BME280;46155;52.364;6.580;2023-06-22T05:00:57;101604.00;;;17.12;100.00
60307;BME280;46155;52.364;6.580;2023-06-22T05:03:24;101606.22;;;17.21;100.00
60307;BME280;46155;52.364;6.580;2023-06-22T05:05:51;101602.22;;;17.31;100.00
60307;BME280;46155;52.364;6.580;2023-06-22T05:08:17;101605.78;;;17.31;100.00
60307;BME280;46155;52.364;6.580;2023-06-22T05:10:43;101601.75;;;17.40;100.00
60307;BME280;46155;52.364;6.580;2023-06-22T05:13:08;101605.44;;;17.43;100.00
60307;BME280;46155;52.364;6.580;2023-06-22T05:15:33;101605.88;;;17.52;100.00
60307;BME280;46155;52.364;6.580;2023-06-22T05:18:05;101598.25;;;17.60;100.00
60307;BME280;46155;52.364;6.580;2023-06-22T05:20:30;101601.03;;;17.63;100.00
60307;BME280;46155;52.364;6.580;2023-06-22T05:22:56;101595.25;;;17.72;100.00
60307;BME280;46155;52.364;6.580;2023-06-22T05:25:21;101603.34;;;17.75;100.00
60307;BME280;46155;52.364;6.580;2023-06-22T05:27:46;101608.19;;;17.85;100.00
60307;BME280;46155;52.364;6.580;2023-06-22T05:30:12;101608.50;;;17.92;100.00
60307;BME280;46155;52.364;6.580;2023-06-22T05:32:38;101603.59;;;18.01;100.00
60307;BME280;46155;52.364;6.580;2023-06-22T05:35:03;101603.59;;;18.01;100.00
60307;BME280;46155;52.364;6.580;2023-06-22T05:37:29;101609.03;;;18.04;100.00
60307;BME280;46155;52.364;6.580;2023-06-22T05:39:54;101600.34;;;18.08;100.00
60307;BME280;46155;52.364;6.580;2023-06-22T05:42:20;101604.50;;;18.22;100.00
60307;BME280;46155;52.364;6.580;2023-06-22T05:44:46;101600.53;;;18.34;100.00
60307;BME280;46155;52.364;6.580;2023-06-22T05:47:12;101605.28;;;18.41;100.00
60307;BME280;46155;52.364;6.580;2023-06-22T05:49:37;101601.91;;;18.45;100.00
60307;BME280;46155;52.364;6.580;2023-06-22T05:52:03;101603.84;;;18.49;100.00
60307;BME280;46155;52.364;6.580;2023-06-22T05:54:28;101611.34;;;18.59;100.00
60307;BME280;46155;52.364;6.580;2023-06-22T05:56:54;101602.78;;;18.67;100.00
60307;BME280;46155;52.364;6.580;2023-06-22T05:59:19;101612.91;;;18.75;100.00
60307;BME280;46155;52.364;6.580;2023-06-22T06:01:44;101615.97;;;18.86;100.00
60307;BME280;46155;52.364;6.580;2023-06-22T06:04:16;101616.50;;;18.99;100.00
60307;BME280;46155;52.364;6.580;2023-06-22T06:06:41;101615.22;;;19.12;100.00
60307;BME280;46155;52.364;6.580;2023-06-22T06:09:07;101615.66;;;19.22;100.00
60307;BME280;46155;52.364;6.580;2023-06-22T06:11:33;101626.88;;;19.38;100.00
60307;BME280;46155;52.364;6.580;2023-06-22T06:13:58;101635.34;;;19.52;100.00
60307;BME280;46155;52.364;6.580;2023-06-22T06:16:24;101622.28;;;19.58;100.00
60307;BME280;46155;52.364;6.580;2023-06-22T06:18:49;101622.34;;;19.59;100.00
60307;BME280;46155;52.364;6.580;2023-06-22T06:21:16;101624.22;;;19.62;100.00
60307;BME280;46155;52.364;6.580;2023-06-22T06:23:41;101615.25;;;19.60;100.00
60307;BME280;46155;52.364;6.580;2023-06-22T06:26:07;101612.94;;;19.69;100.00
60307;BME280;46155;52.364;6.580;2023-06-22T06:28:33;101622.47;;;19.87;100.00
60307;BME280;46155;52.364;6.580;2023-06-22T06:30:59;101616.00;;;19.80;100.00
60307;BME280;46155;52.364;6.580;2023-06-22T06:33:24;101623.97;;;20.04;100.00
60307;BME280;46155;52.364;6.580;2023-06-22T06:35:50;101615.69;;;20.22;100.00
60307;BME280;46155;52.364;6.580;2023-06-22T06:38:15;101620.63;;;20.36;99.24
60307;BME280;46155;52.364;6.580;2023-06-22T06:40:40;101620.53;;;20.34;98.50
60307;BME280;46155;52.364;6.580;2023-06-22T06:43:06;101611.31;;;20.50;98.61
60307;BME280;46155;52.364;6.580;2023-06-22T06:45:31;101609.69;;;20.55;96.29
60307;BME280;46155;52.364;6.580;2023-06-22T06:48:00;101605.28;;;20.56;95.20
60307;BME280;46155;52.364;6.580;2023-06-22T06:50:25;101602.84;;;20.63;94.85
60307;BME280;46155;52.364;6.580;2023-06-22T06:52:50;101611.00;;;20.68;92.35
60307;BME280;46155;52.364;6.580;2023-06-22T06:55:16;101615.59;;;20.72;92.50
60307;BME280;46155;52.364;6.580;2023-06-22T06:57:43;101615.84;;;20.80;91.64
60307;BME280;46155;52.364;6.580;2023-06-22T07:00:12;101609.09;;;20.91;91.46
60307;BME280;46155;52.364;6.580;2023-06-22T07:02:40;101611.22;;;21.03;91.62
60307;BME280;46155;52.364;6.580;2023-06-22T07:05:06;101601.31;;;20.99;90.59
60307;BME280;46155;52.364;6.580;2023-06-22T07:07:32;101608.56;;;21.03;89.56
60307;BME280;46155;52.364;6.580;2023-06-22T07:09:57;101611.56;;;21.14;89.17
60307;BME280;46155;52.364;6.580;2023-06-22T07:12:23;101615.47;;;21.25;88.83
60307;BME280;46155;52.364;6.580;2023-06-22T07:14:48;101607.41;;;21.24;86.96
60307;BME280;46155;52.364;6.580;2023-06-22T07:17:13;101607.75;;;21.36;86.60
60307;BME280;46155;52.364;6.580;2023-06-22T07:19:39;101598.56;;;21.55;89.86
60307;BME280;46155;52.364;6.580;2023-06-22T07:22:05;101595.53;;;21.75;87.42
60307;BME280;46155;52.364;6.580;2023-06-22T07:24:30;101599.25;;;21.81;85.42
60307;BME280;46155;52.364;6.580;2023-06-22T07:26:56;101596.47;;;21.77;83.85
60307;BME280;46155;52.364;6.580;2023-06-22T07:29:24;101585.63;;;21.71;83.95
60307;BME280;46155;52.364;6.580;2023-06-22T07:31:50;101573.88;;;21.65;84.96
60307;BME280;46155;52.364;6.580;2023-06-22T07:34:16;101570.47;;;21.71;85.45
60307;BME280;46155;52.364;6.580;2023-06-22T07:36:42;101570.16;;;21.92;86.46
60307;BME280;46155;52.364;6.580;2023-06-22T07:39:07;101575.13;;;22.12;84.52
60307;BME280;46155;52.364;6.580;2023-06-22T07:41:33;101571.94;;;22.28;86.14
60307;BME280;46155;52.364;6.580;2023-06-22T07:43:58;101579.47;;;22.42;83.24
60307;BME280;46155;52.364;6.580;2023-06-22T07:46:24;101587.63;;;22.48;83.22
60307;BME280;46155;52.364;6.580;2023-06-22T07:48:49;101576.50;;;22.32;80.54
60307;BME280;46155;52.364;6.580;2023-06-22T07:51:14;101580.69;;;22.21;82.81
60307;BME280;46155;52.364;6.580;2023-06-22T07:53:44;101585.19;;;22.22;83.46
60307;BME280;46155;52.364;6.580;2023-06-22T07:56:12;101569.84;;;22.15;83.41
60307;BME280;46155;52.364;6.580;2023-06-22T07:58:38;101572.22;;;22.04;83.35
60307;BME280;46155;52.364;6.580;2023-06-22T08:01:03;101564.56;;;22.18;83.97
60307;BME280;46155;52.364;6.580;2023-06-22T08:03:29;101568.69;;;22.39;83.88
60307;BME280;46155;52.364;6.580;2023-06-22T08:05:54;101561.69;;;22.45;81.81
60307;BME280;46155;52.364;6.580;2023-06-22T08:08:20;101561.59;;;22.41;80.95
60307;BME280;46155;52.364;6.580;2023-06-22T08:10:45;101559.72;;;22.37;81.46
60307;BME280;46155;52.364;6.580;2023-06-22T08:13:10;101563.06;;;22.29;81.79
60307;BME280;46155;52.364;6.580;2023-06-22T08:15:36;101556.72;;;22.24;84.08
60307;BME280;46155;52.364;6.580;2023-06-22T08:18:01;101564.81;;;22.27;82.61
60307;BME280;46155;52.364;6.580;2023-06-22T08:20:27;101568.22;;;22.20;81.83
60307;BME280;46155;52.364;6.580;2023-06-22T08:22:53;101562.91;;;22.22;83.37
60307;BME280;46155;52.364;6.580;2023-06-22T08:25:20;101552.16;;;22.20;83.17
60307;BME280;46155;52.364;6.580;2023-06-22T08:27:47;101561.25;;;22.28;82.36
60307;BME280;46155;52.364;6.580;2023-06-22T08:30:14;101552.44;;;22.32;83.45
60307;BME280;46155;52.364;6.580;2023-06-22T08:32:39;101566.28;;;22.51;82.12
60307;BME280;46155;52.364;6.580;2023-06-22T08:35:05;101563.84;;;22.60;82.13
60307;BME280;46155;52.364;6.580;2023-06-22T08:37:33;101555.22;;;22.74;81.64
60307;BME280;46155;52.364;6.580;2023-06-22T08:40:02;101555.56;;;22.89;84.26
60307;BME280;46155;52.364;6.580;2023-06-22T08:42:31;101545.47;;;22.76;79.96
60307;BME280;46155;52.364;6.580;2023-06-22T08:44:56;101541.19;;;22.84;82.09
60307;BME280;46155;52.364;6.580;2023-06-22T08:47:22;101537.78;;;22.91;80.92
60307;BME280;46155;52.364;6.580;2023-06-22T08:49:48;101533.97;;;22.80;80.16
60307;BME280;46155;52.364;6.580;2023-06-22T08:52:14;101518.66;;;22.74;81.28
60307;BME280;46155;52.364;6.580;2023-06-22T08:54:39;101517.91;;;22.80;81.22
60307;BME280;46155;52.364;6.580;2023-06-22T08:57:05;101522.69;;;22.96;80.25
60307;BME280;46155;52.364;6.580;2023-06-22T08:59:30;101515.72;;;23.03;81.16
60307;BME280;46155;52.364;6.580;2023-06-22T09:01:55;101504.50;;;23.21;81.74
60307;BME280;46155;52.364;6.580;2023-06-22T09:04:21;101493.81;;;23.23;80.51
60307;BME280;46155;52.364;6.580;2023-06-22T09:06:47;101500.03;;;23.21;78.81
60307;BME280;46155;52.364;6.580;2023-06-22T09:09:13;101484.66;;;23.11;80.58
60307;BME280;46155;52.364;6.580;2023-06-22T09:11:40;101499.25;;;23.27;80.85
60307;BME280;46155;52.364;6.580;2023-06-22T09:14:05;101495.81;;;23.34;79.49
60307;BME280;46155;52.364;6.580;2023-06-22T09:16:30;101492.38;;;23.42;77.91
60307;BME280;46155;52.364;6.580;2023-06-22T09:18:55;101492.47;;;23.45;78.22
60307;BME280;46155;52.364;6.580;2023-06-22T09:21:21;101485.25;;;23.41;78.05
60307;BME280;46155;52.364;6.580;2023-06-22T09:23:46;101481.91;;;23.54;77.85
60307;BME280;46155;52.364;6.580;2023-06-22T09:26:16;101490.91;;;23.56;77.41
60307;BME280;46155;52.364;6.580;2023-06-22T09:28:41;101477.63;;;23.64;79.03
60307;BME280;46155;52.364;6.580;2023-06-22T09:31:06;101490.22;;;23.69;76.41
60307;BME280;46155;52.364;6.580;2023-06-22T09:33:32;101487.81;;;23.85;77.13
60307;BME280;46155;52.364;6.580;2023-06-22T09:35:57;101487.81;;;23.85;75.54
60307;BME280;46155;52.364;6.580;2023-06-22T09:38:23;101498.41;;;23.79;76.90
60307;BME280;46155;52.364;6.580;2023-06-22T09:40:48;101495.16;;;23.95;75.37
60307;BME280;46155;52.364;6.580;2023-06-22T09:43:13;101498.09;;;24.11;76.30
60307;BME280;46155;52.364;6.580;2023-06-22T09:45:39;101505.38;;;24.19;75.48
60307;BME280;46155;52.364;6.580;2023-06-22T09:48:05;101493.81;;;24.22;73.20
60307;BME280;46155;52.364;6.580;2023-06-22T09:50:30;101502.69;;;24.19;72.32
60307;BME280;46155;52.364;6.580;2023-06-22T09:52:55;101507.91;;;24.09;72.60
60307;BME280;46155;52.364;6.580;2023-06-22T09:55:21;101497.72;;;23.87;72.96
60307;BME280;46155;52.364;6.580;2023-06-22T09:57:47;101495.06;;;23.89;73.03
60307;BME280;46155;52.364;6.580;2023-06-22T10:00:15;101500.47;;;23.92;73.52
60307;BME280;46155;52.364;6.580;2023-06-22T10:02:41;101481.94;;;24.06;76.14
60307;BME280;46155;52.364;6.580;2023-06-22T10:05:06;101480.97;;;24.02;74.30
60307;BME280;46155;52.364;6.580;2023-06-22T10:07:33;101481.00;;;24.05;75.05
60307;BME280;46155;52.364;6.580;2023-06-22T10:09:58;101472.00;;;24.00;73.90
60307;BME280;46155;52.364;6.580;2023-06-22T10:12:23;101474.84;;;24.11;75.51
60307;BME280;46155;52.364;6.580;2023-06-22T10:14:49;101468.78;;;24.23;74.69
60307;BME280;46155;52.364;6.580;2023-06-22T10:17:14;101475.06;;;24.25;72.01
60307;BME280;46155;52.364;6.580;2023-06-22T10:19:39;101465.03;;;24.12;72.64
60307;BME280;46155;52.364;6.580;2023-06-22T10:22:06;101474.78;;;24.06;73.73
60307;BME280;46155;52.364;6.580;2023-06-22T10:24:32;101481.81;;;24.00;72.72
60307;BME280;46155;52.364;6.580;2023-06-22T10:26:57;101477.38;;;24.00;73.19
60307;BME280;46155;52.364;6.580;2023-06-22T10:29:23;101464.03;;;24.05;73.93
60307;BME280;46155;52.364;6.580;2023-06-22T10:31:48;101467.63;;;24.07;73.85
60307;BME280;46155;52.364;6.580;2023-06-22T10:34:13;101467.72;;;24.12;73.90
60307;BME280;46155;52.364;6.580;2023-06-22T10:36:39;101470.38;;;24.09;73.53
60307;BME280;46155;52.364;6.580;2023-06-22T10:39:04;101469.41;;;24.05;73.44
60307;BME280;46155;52.364;6.580;2023-06-22T10:41:31;101472.94;;;24.02;73.16
60307;BME280;46155;52.364;6.580;2023-06-22T10:43:56;101477.41;;;24.03;74.25
60307;BME280;46155;52.364;6.580;2023-06-22T10:46:24;101468.34;;;23.95;72.87
60307;BME280;46155;52.364;6.580;2023-06-22T10:48:49;101473.78;;;24.01;73.50
60307;BME280;46155;52.364;6.580;2023-06-22T10:51:15;101483.72;;;24.07;74.35
60307;BME280;46155;52.364;6.580;2023-06-22T10:53:40;101478.50;;;24.16;73.56
60307;BME280;46155;52.364;6.580;2023-06-22T10:56:06;101474.97;;;24.19;72.14
60307;BME280;46155;52.364;6.580;2023-06-22T10:58:31;101480.94;;;23.99;72.99
60307;BME280;46155;52.364;6.580;2023-06-22T11:00:57;101470.03;;;23.90;73.30
60307;BME280;46155;52.364;6.580;2023-06-22T11:03:24;101473.66;;;23.92;73.03
60307;BME280;46155;52.364;6.580;2023-06-22T11:05:49;101473.63;;;23.89;71.33
60307;BME280;46155;52.364;6.580;2023-06-22T11:08:15;101463.81;;;23.91;71.80
60307;BME280;46155;52.364;6.580;2023-06-22T11:10:40;101464.78;;;23.96;72.24
60307;BME280;46155;52.364;6.580;2023-06-22T11:13:05;101461.25;;;23.97;72.77
60307;BME280;46155;52.364;6.580;2023-06-22T11:15:34;101458.66;;;24.03;72.14
60307;BME280;46155;52.364;6.580;2023-06-22T11:18:00;101458.63;;;24.02;71.47
60307;BME280;46155;52.364;6.580;2023-06-22T11:20:25;101461.31;;;24.02;72.79
60307;BME280;46155;52.364;6.580;2023-06-22T11:22:50;101454.31;;;24.12;74.14
60307;BME280;46155;52.364;6.580;2023-06-22T11:25:16;101457.91;;;24.14;72.12
60307;BME280;46155;52.364;6.580;2023-06-22T11:27:41;101443.44;;;24.02;72.07
60307;BME280;46155;52.364;6.580;2023-06-22T11:30:07;101437.16;;;24.00;72.64
60307;BME280;46155;52.364;6.580;2023-06-22T11:32:33;101439.91;;;24.06;73.20
60307;BME280;46155;52.364;6.580;2023-06-22T11:34:59;101434.63;;;24.13;72.06
60307;BME280;46155;52.364;6.580;2023-06-22T11:37:24;101440.00;;;24.13;71.08
60307;BME280;46155;52.364;6.580;2023-06-22T11:39:49;101436.56;;;24.20;72.07
60307;BME280;46155;52.364;6.580;2023-06-22T11:42:15;101425.88;;;24.23;72.35
60307;BME280;46155;52.364;6.580;2023-06-22T11:44:41;101423.25;;;24.29;71.74
60307;BME280;46155;52.364;6.580;2023-06-22T11:47:07;101418.75;;;24.28;70.84
60307;BME280;46155;52.364;6.580;2023-06-22T11:49:32;101414.31;;;24.27;71.04
60307;BME280;46155;52.364;6.580;2023-06-22T11:51:58;101414.34;;;24.32;71.87
60307;BME280;46155;52.364;6.580;2023-06-22T11:54:23;101414.34;;;24.32;71.51
60307;BME280;46155;52.364;6.580;2023-06-22T11:56:48;101408.16;;;24.37;72.13
60307;BME280;46155;52.364;6.580;2023-06-22T11:59:14;101399.06;;;24.26;71.73
60307;BME280;46155;52.364;6.580;2023-06-22T12:01:39;101397.22;;;24.20;71.74
60307;BME280;46155;52.364;6.580;2023-06-22T12:04:05;101388.28;;;24.20;71.79
60307;BME280;46155;52.364;6.580;2023-06-22T12:06:32;101390.88;;;24.15;70.35
60307;BME280;46155;52.364;6.580;2023-06-22T12:08:57;101377.41;;;24.11;71.06
60307;BME280;46155;52.364;6.580;2023-06-22T12:11:23;101384.31;;;23.93;69.92
60307;BME280;46155;52.364;6.580;2023-06-22T12:13:48;101380.63;;;23.88;70.08
60307;BME280;46155;52.364;6.580;2023-06-22T12:16:13;101384.03;;;23.78;70.63
60307;BME280;46155;52.364;6.580;2023-06-22T12:18:39;101396.53;;;23.79;71.24
60307;BME280;46155;52.364;6.580;2023-06-22T12:21:04;101380.44;;;23.79;70.90
60307;BME280;46155;52.364;6.580;2023-06-22T12:23:29;101390.31;;;23.81;70.73
60307;BME280;46155;52.364;6.580;2023-06-22T12:25:55;101387.69;;;23.84;70.19
60307;BME280;46155;52.364;6.580;2023-06-22T12:28:20;101387.81;;;23.89;71.55
60307;BME280;46155;52.364;6.580;2023-06-22T12:30:46;101378.75;;;23.84;72.19
60307;BME280;46155;52.364;6.580;2023-06-22T12:33:11;101379.66;;;23.84;72.87
60307;BME280;46155;52.364;6.580;2023-06-22T12:35:36;101381.50;;;23.87;73.53
60307;BME280;46155;52.364;6.580;2023-06-22T12:38:02;101377.88;;;23.83;73.58
60307;BME280;46155;52.364;6.580;2023-06-22T12:40:28;101375.06;;;23.76;72.45
60307;BME280;46155;52.364;6.580;2023-06-22T12:42:53;101374.06;;;23.67;72.79
60307;BME280;46155;52.364;6.580;2023-06-22T12:45:19;101382.09;;;23.67;73.76
60307;BME280;46155;52.364;6.580;2023-06-22T12:47:46;101378.56;;;23.71;73.52
60307;BME280;46155;52.364;6.580;2023-06-22T12:50:11;101388.44;;;23.76;75.11
60307;BME280;46155;52.364;6.580;2023-06-22T12:52:37;101382.22;;;23.77;74.52
60307;BME280;46155;52.364;6.580;2023-06-22T12:55:06;101385.81;;;23.79;74.65
60307;BME280;46155;52.364;6.580;2023-06-22T12:57:32;101385.72;;;23.72;74.62
60307;BME280;46155;52.364;6.580;2023-06-22T12:59:57;101391.91;;;23.68;74.79
60307;BME280;46155;52.364;6.580;2023-06-22T13:02:23;101391.94;;;23.70;78.18
60307;BME280;46155;52.364;6.580;2023-06-22T13:04:49;101384.78;;;23.67;79.21
60307;BME280;46155;52.364;6.580;2023-06-22T13:07:14;101385.72;;;23.72;83.98
60307;BME280;46155;52.364;6.580;2023-06-22T13:09:39;101386.47;;;23.62;85.69
60307;BME280;46155;52.364;6.580;2023-06-22T13:12:05;101372.88;;;23.51;84.07
60307;BME280;46155;52.364;6.580;2023-06-22T13:14:30;101376.34;;;23.46;86.32
60307;BME280;46155;52.364;6.580;2023-06-22T13:16:56;101382.63;;;23.46;86.60
60307;BME280;46155;52.364;6.580;2023-06-22T13:19:21;101380.72;;;23.39;87.01
60307;BME280;46155;52.364;6.580;2023-06-22T13:21:46;101381.56;;;23.36;89.21
60307;BME280;46155;52.364;6.580;2023-06-22T13:24:12;101379.72;;;23.32;89.81
60307;BME280;46155;52.364;6.580;2023-06-22T13:26:37;101379.81;;;23.38;93.04
60307;BME280;46155;52.364;6.580;2023-06-22T13:29:04;101381.34;;;23.24;94.18
60307;BME280;46155;52.364;6.580;2023-06-22T13:31:29;101364.22;;;23.14;93.53
60307;BME280;46155;52.364;6.580;2023-06-22T13:33:54;101368.72;;;23.17;94.96
60307;BME280;46155;52.364;6.580;2023-06-22T13:36:20;101355.09;;;23.06;96.84
60307;BME280;46155;52.364;6.580;2023-06-22T13:38:46;101351.34;;;22.96;94.69
60307;BME280;46155;52.364;6.580;2023-06-22T13:41:12;101351.25;;;22.90;96.94
60307;BME280;46155;52.364;6.580;2023-06-22T13:43:37;101356.50;;;22.85;98.44
60307;BME280;46155;52.364;6.580;2023-06-22T13:46:03;101366.31;;;22.85;97.51
60307;BME280;46155;52.364;6.580;2023-06-22T13:48:28;101362.72;;;22.83;99.01
60307;BME280;46155;52.364;6.580;2023-06-22T13:50:54;101362.59;;;22.77;97.27
60307;BME280;46155;52.364;6.580;2023-06-22T13:53:19;101360.75;;;22.74;99.74
60307;BME280;46155;52.364;6.580;2023-06-22T13:55:44;101353.47;;;22.65;99.26
60307;BME280;46155;52.364;6.580;2023-06-22T13:58:10;101346.13;;;22.57;100.00
60307;BME280;46155;52.364;6.580;2023-06-22T14:00:35;101344.78;;;22.33;100.00
60307;BME280;46155;52.364;6.580;2023-06-22T14:03:00;101331.94;;;22.18;100.00
60307;BME280;46155;52.364;6.580;2023-06-22T14:05:26;101328.84;;;21.99;100.00
60307;BME280;46155;52.364;6.580;2023-06-22T14:07:51;101305.53;;;21.92;100.00
60307;BME280;46155;52.364;6.580;2023-06-22T14:10:17;101306.22;;;21.83;100.00
60307;BME280;46155;52.364;6.580;2023-06-22T14:12:42;101309.88;;;21.89;100.00
60307;BME280;46155;52.364;6.580;2023-06-22T14:15:08;101305.31;;;21.83;100.00
60307;BME280;46155;52.364;6.580;2023-06-22T14:17:33;101292.78;;;21.79;100.00
60307;BME280;46155;52.364;6.580;2023-06-22T14:19:58;101283.44;;;21.61;100.00
60307;BME280;46155;52.364;6.580;2023-06-22T14:22:24;101276.06;;;21.51;100.00
60307;BME280;46155;52.364;6.580;2023-06-22T14:24:49;101270.50;;;21.42;100.00
60307;BME280;46155;52.364;6.580;2023-06-22T14:27:15;101272.09;;;21.33;100.00
60307;BME280;46155;52.364;6.580;2023-06-22T14:29:41;101269.22;;;21.26;100.00
60307;BME280;46155;52.364;6.580;2023-06-22T14:32:06;101267.19;;;21.15;100.00
60307;BME280;46155;52.364;6.580;2023-06-22T14:34:33;101264.59;;;21.19;100.00
60307;BME280;46155;52.364;6.580;2023-06-22T14:37:01;101269.06;;;21.18;100.00
60307;BME280;46155;52.364;6.580;2023-06-22T14:39:26;101277.06;;;21.18;100.00
60307;BME280;46155;52.364;6.580;2023-06-22T14:41:51;101267.81;;;21.04;100.00
60307;BME280;46155;52.364;6.580;2023-06-22T14:44:17;101264.19;;;21.02;100.00
60307;BME280;46155;52.364;6.580;2023-06-22T14:46:42;101262.28;;;20.97;100.00
60307;BME280;46155;52.364;6.580;2023-06-22T14:49:07;101251.53;;;20.94;100.00
60307;BME280;46155;52.364;6.580;2023-06-22T14:51:33;101235.25;;;20.84;100.00
60307;BME280;46155;52.364;6.580;2023-06-22T14:53:58;101228.69;;;20.71;100.00
60307;BME280;46155;52.364;6.580;2023-06-22T14:56:23;101226.22;;;20.77;100.00
60307;BME280;46155;52.364;6.580;2023-06-22T14:58:49;101220.84;;;20.75;100.00
60307;BME280;46155;52.364;6.580;2023-06-22T15:01:16;101227.22;;;20.82;100.00
60307;BME280;46155;52.364;6.580;2023-06-22T15:03:42;101230.19;;;20.94;100.00
60307;BME280;46155;52.364;6.580;2023-06-22T15:06:08;101227.34;;;20.87;100.00
60307;BME280;46155;52.364;6.580;2023-06-22T15:08:33;101230.06;;;20.88;100.00
60307;BME280;46155;52.364;6.580;2023-06-22T15:10:59;101221.28;;;20.92;100.00
60307;BME280;46155;52.364;6.580;2023-06-22T15:13:26;101218.75;;;20.98;100.00
60307;BME280;46155;52.364;6.580;2023-06-22T15:15:53;101192.72;;;20.90;100.00
60307;BME280;46155;52.364;6.580;2023-06-22T15:18:18;101203.69;;;21.02;100.00
60307;BME280;46155;52.364;6.580;2023-06-22T15:20:44;101198.31;;;21.01;100.00
60307;BME280;46155;52.364;6.580;2023-06-22T15:23:11;101199.03;;;20.93;100.00
60307;BME280;46155;52.364;6.580;2023-06-22T15:25:36;101201.50;;;20.84;100.00
60307;BME280;46155;52.364;6.580;2023-06-22T15:28:02;101193.63;;;20.90;100.00
60307;BME280;46155;52.364;6.580;2023-06-22T15:30:28;101199.81;;;20.89;100.00
60307;BME280;46155;52.364;6.580;2023-06-22T15:32:53;101196.44;;;20.96;100.00
60307;BME280;46155;52.364;6.580;2023-06-22T15:35:18;101191.75;;;20.86;100.00
60307;BME280;46155;52.364;6.580;2023-06-22T15:37:44;101189.00;;;20.83;100.00